createdAt,value
2023-03-24T00:01:56.327Z,11.60
2023-03-24T00:04:25.163Z,11.60
2023-03-24T00:06:54.087Z,11.70
2023-03-24T00:09:21.930Z,11.70
2023-03-24T00:11:49.020Z,11.70
2023-03-24T00:14:15.947Z,11.70
2023-03-24T00:16:43.189Z,11.80
2023-03-24T00:19:13.630Z,11.80
2023-03-24T00:21:42.069Z,11.80
2023-03-24T00:24:11.323Z,11.80
2023-03-24T00:26:40.363Z,11.80
2023-03-24T00:29:09.372Z,11.80
2023-03-24T00:31:40.132Z,11.70
2023-03-24T00:34:08.948Z,11.70
2023-03-24T00:36:37.156Z,11.60
2023-03-24T00:39:06.555Z,11.60
2023-03-24T00:41:33.865Z,11.60
2023-03-24T00:44:03.781Z,11.50
2023-03-24T00:46:31.061Z,11.50
2023-03-24T00:49:03.116Z,11.50
2023-03-24T00:51:33.742Z,11.50
2023-03-24T00:54:02.147Z,11.40
2023-03-24T00:56:31.621Z,11.40
2023-03-24T00:58:58.791Z,11.50
2023-03-24T01:01:29.417Z,11.50
2023-03-24T01:03:57.010Z,11.50
2023-03-24T01:06:24.663Z,11.50
2023-03-24T01:08:54.015Z,11.50
2023-03-24T01:11:25.756Z,11.50
2023-03-24T01:13:54.722Z,11.40
2023-03-24T01:16:25.861Z,11.40
2023-03-24T01:18:53.202Z,11.40
2023-03-24T01:21:20.537Z,11.40
2023-03-24T01:23:47.888Z,11.30
2023-03-24T01:26:15.575Z,11.40
2023-03-24T01:28:43.880Z,11.40
2023-03-24T01:31:11.944Z,11.40
2023-03-24T01:33:39.225Z,11.40
2023-03-24T01:36:08.201Z,11.30
2023-03-24T01:38:36.085Z,11.20
2023-03-24T01:41:05.345Z,11.20
2023-03-24T01:43:34.585Z,11.10
2023-03-24T01:46:13.699Z,11.00
2023-03-24T01:49:00.220Z,11.10
2023-03-24T01:51:35.282Z,11.10
2023-03-24T01:54:27.585Z,11.10
2023-03-24T01:57:07.523Z,11.00
2023-03-24T01:59:36.586Z,11.10
2023-03-24T02:02:05.718Z,11.10
2023-03-24T02:04:41.240Z,11.20
2023-03-24T02:07:27.867Z,11.20
2023-03-24T02:09:54.808Z,11.20
2023-03-24T02:12:21.962Z,11.20
2023-03-24T02:14:49.551Z,11.10
2023-03-24T02:17:36.031Z,11.10
2023-03-24T02:20:40.801Z,11.00
2023-03-24T02:23:25.638Z,11.00
2023-03-24T02:26:26.627Z,10.90
2023-03-24T02:29:13.471Z,10.80
2023-03-24T02:31:43.494Z,10.80
2023-03-24T02:34:41.119Z,10.80
2023-03-24T02:37:35.688Z,10.80
2023-03-24T02:40:08.792Z,10.80
2023-03-24T02:43:06.982Z,10.90
2023-03-24T02:45:42.289Z,10.80
2023-03-24T02:48:27.507Z,10.90
2023-03-24T02:51:12.692Z,10.90
2023-03-24T02:54:00.802Z,10.90
2023-03-24T02:56:36.701Z,10.80
2023-03-24T02:59:07.598Z,10.80
2023-03-24T03:02:09.330Z,10.80
2023-03-24T03:04:46.335Z,10.70
2023-03-24T03:07:17.003Z,10.70
2023-03-24T03:10:17.259Z,10.70
2023-03-24T03:12:49.486Z,10.70
2023-03-24T03:15:23.209Z,10.70
2023-03-24T03:18:05.875Z,10.70
2023-03-24T03:20:43.112Z,10.60
2023-03-24T03:23:14.658Z,10.70
2023-03-24T03:25:46.644Z,10.70
2023-03-24T03:28:18.072Z,10.60
2023-03-24T03:30:51.152Z,10.60
2023-03-24T03:33:26.707Z,10.70
2023-03-24T03:36:11.893Z,10.60
2023-03-24T03:39:02.652Z,10.60
2023-03-24T03:41:30.378Z,10.70
2023-03-24T03:43:57.604Z,10.60
2023-03-24T03:46:24.709Z,10.50
2023-03-24T03:48:51.759Z,10.50
2023-03-24T03:51:18.881Z,10.50
2023-03-24T03:54:01.216Z,10.40
2023-03-24T03:56:31.455Z,10.40
2023-03-24T03:58:58.700Z,10.40
2023-03-24T04:01:29.940Z,10.50
2023-03-24T04:04:11.710Z,10.40
2023-03-24T04:06:53.943Z,10.50
2023-03-24T04:09:58.682Z,10.50
2023-03-24T04:12:57.434Z,10.50
2023-03-24T04:16:03.626Z,10.60
2023-03-24T04:18:39.771Z,10.60
2023-03-24T04:21:20.357Z,10.60
2023-03-24T04:24:02.415Z,10.70
2023-03-24T04:26:45.490Z,10.70
2023-03-24T04:29:53.202Z,10.70
2023-03-24T04:32:35.586Z,10.80
2023-03-24T04:35:10.326Z,10.80
2023-03-24T04:37:38.372Z,10.90
2023-03-24T04:40:11.887Z,10.90
2023-03-24T04:42:45.504Z,11.10
2023-03-24T04:45:14.039Z,11.20
2023-03-24T04:47:47.532Z,11.20
2023-03-24T04:50:14.940Z,11.30
2023-03-24T04:52:43.008Z,11.30
2023-03-24T04:55:51.714Z,11.30
2023-03-24T04:58:21.205Z,11.30
2023-03-24T05:00:49.353Z,11.30
2023-03-24T05:03:18.536Z,11.20
2023-03-24T05:05:48.386Z,11.30
2023-03-24T05:08:16.826Z,11.20
2023-03-24T05:10:44.063Z,11.20
2023-03-24T05:13:11.497Z,11.20
2023-03-24T05:15:38.816Z,11.20
2023-03-24T05:18:06.477Z,11.30
2023-03-24T05:20:33.587Z,11.30
2023-03-24T05:23:01.747Z,11.30
2023-03-24T05:25:28.665Z,11.30
2023-03-24T05:27:56.051Z,11.30
2023-03-24T05:30:23.150Z,11.30
2023-03-24T05:32:50.240Z,11.30
2023-03-24T05:35:17.259Z,11.30
2023-03-24T05:37:44.312Z,11.30
2023-03-24T05:40:11.836Z,11.30
2023-03-24T05:42:39.340Z,11.30
2023-03-24T05:45:07.280Z,11.40
2023-03-24T05:47:34.241Z,11.40
2023-03-24T05:50:01.311Z,11.40
2023-03-24T05:52:29.032Z,11.40
2023-03-24T05:54:56.152Z,11.40
2023-03-24T05:57:23.379Z,11.50
2023-03-24T05:59:52.241Z,11.40
2023-03-24T06:02:19.258Z,11.40
2023-03-24T06:04:49.460Z,11.40
2023-03-24T06:07:16.834Z,11.40
2023-03-24T06:09:47.272Z,11.40
2023-03-24T06:12:16.360Z,11.40
2023-03-24T06:14:43.985Z,11.40
2023-03-24T06:17:15.163Z,11.30
2023-03-24T06:19:49.690Z,11.40
2023-03-24T06:22:20.890Z,11.50
2023-03-24T06:24:50.117Z,11.70
2023-03-24T06:27:18.908Z,11.90
2023-03-24T06:29:46.089Z,12.00
2023-03-24T06:32:13.100Z,12.00
2023-03-24T06:34:40.617Z,12.10
2023-03-24T06:37:08.134Z,12.20
2023-03-24T06:39:35.027Z,12.20
2023-03-24T06:42:02.268Z,12.30
2023-03-24T06:44:29.313Z,12.30
2023-03-24T06:46:56.247Z,12.20
2023-03-24T06:49:23.226Z,12.30
2023-03-24T06:51:50.176Z,12.40
2023-03-24T06:54:17.498Z,12.40
2023-03-24T06:56:44.740Z,12.50
2023-03-24T06:59:11.780Z,12.50
2023-03-24T07:01:39.884Z,12.50
2023-03-24T07:04:06.964Z,12.50
2023-03-24T07:06:40.475Z,12.40
2023-03-24T07:09:10.492Z,12.40
2023-03-24T07:11:37.392Z,12.40
2023-03-24T07:14:04.969Z,13.00
2023-03-24T07:16:31.989Z,13.60
2023-03-24T07:18:58.954Z,13.50
2023-03-24T07:21:27.364Z,13.50
2023-03-24T07:23:54.580Z,13.50
2023-03-24T07:26:21.485Z,13.50
2023-03-24T07:28:49.083Z,13.30
2023-03-24T07:31:17.769Z,13.10
2023-03-24T07:33:44.924Z,12.90
2023-03-24T07:36:11.935Z,12.80
2023-03-24T07:38:38.917Z,12.80
2023-03-24T07:41:06.046Z,12.80
2023-03-24T07:43:33.060Z,13.00
2023-03-24T07:46:00.065Z,13.20
2023-03-24T07:48:27.344Z,13.30
2023-03-24T07:50:54.364Z,13.20
2023-03-24T07:53:21.518Z,13.10
2023-03-24T07:55:48.814Z,13.10
2023-03-24T07:58:16.032Z,13.10
2023-03-24T08:00:43.277Z,13.20
2023-03-24T08:03:14.614Z,13.30
2023-03-24T08:05:42.306Z,13.20
2023-03-24T08:08:09.645Z,13.20
2023-03-24T08:10:37.131Z,13.20
2023-03-24T08:13:04.460Z,13.10
2023-03-24T08:15:31.884Z,13.10
2023-03-24T08:17:58.972Z,13.00
2023-03-24T08:20:27.471Z,13.00
2023-03-24T08:22:54.913Z,12.90
2023-03-24T08:25:24.428Z,12.80
2023-03-24T08:27:52.164Z,12.70
2023-03-24T08:30:24.615Z,12.80
2023-03-24T08:32:57.530Z,12.80
2023-03-24T08:35:28.584Z,12.70
2023-03-24T08:37:55.640Z,12.60
2023-03-24T08:40:24.458Z,12.60
2023-03-24T08:42:54.962Z,12.60
2023-03-24T08:45:24.111Z,12.50
2023-03-24T08:47:52.614Z,12.50
2023-03-24T08:50:22.572Z,12.40
2023-03-24T08:52:50.214Z,12.30
2023-03-24T08:55:19.055Z,12.30
2023-03-24T08:57:46.772Z,12.20
2023-03-24T09:00:16.382Z,12.20
2023-03-24T09:02:45.243Z,12.20
2023-03-24T09:05:13.089Z,12.20
2023-03-24T09:07:40.051Z,12.20
2023-03-24T09:10:08.787Z,12.20
2023-03-24T09:12:36.817Z,12.20
2023-03-24T09:15:06.409Z,12.20
2023-03-24T09:17:33.543Z,12.20
2023-03-24T09:20:02.040Z,12.20
2023-03-24T09:22:29.357Z,12.20
2023-03-24T09:24:56.412Z,12.20
2023-03-24T09:27:23.550Z,12.20
2023-03-24T09:29:50.815Z,12.20
2023-03-24T09:32:17.754Z,12.20
2023-03-24T09:34:44.944Z,12.40
2023-03-24T09:37:11.912Z,12.50
2023-03-24T09:39:40.379Z,12.60
2023-03-24T09:42:11.594Z,12.60
2023-03-24T09:44:43.910Z,12.70
2023-03-24T09:47:40.199Z,12.90
2023-03-24T09:50:18.196Z,13.00
2023-03-24T09:52:49.207Z,13.10
2023-03-24T09:55:28.304Z,13.30
2023-03-24T09:58:05.070Z,13.50
2023-03-24T10:00:33.357Z,13.40
2023-03-24T10:03:19.441Z,13.40
2023-03-24T10:06:15.385Z,13.50
2023-03-24T10:08:52.018Z,13.40
2023-03-24T10:11:31.179Z,13.40
2023-03-24T10:14:13.267Z,13.40
2023-03-24T10:17:21.494Z,13.30
2023-03-24T10:19:59.325Z,13.20
2023-03-24T10:22:39.065Z,13.10
2023-03-24T10:25:19.442Z,13.30
2023-03-24T10:28:13.990Z,13.50
2023-03-24T10:30:46.944Z,13.60
2023-03-24T10:33:15.279Z,13.80
2023-03-24T10:35:51.233Z,13.80
2023-03-24T10:38:22.925Z,14.00
2023-03-24T10:40:50.193Z,14.10
2023-03-24T10:43:18.981Z,14.00
2023-03-24T10:45:50.388Z,14.00
2023-03-24T10:48:40.781Z,14.10
2023-03-24T10:51:13.922Z,14.10
2023-03-24T10:53:40.962Z,13.80
2023-03-24T10:56:08.476Z,13.80
2023-03-24T10:58:41.788Z,13.90
2023-03-24T11:01:32.719Z,14.10
2023-03-24T11:04:13.088Z,14.40
2023-03-24T11:07:02.097Z,14.40
2023-03-24T11:09:29.863Z,14.70
2023-03-24T11:12:02.704Z,15.10
2023-03-24T11:14:31.000Z,15.50
2023-03-24T11:17:15.135Z,15.70
2023-03-24T11:19:52.752Z,16.20
2023-03-24T11:22:20.544Z,16.00
2023-03-24T11:24:52.622Z,16.10
2023-03-24T11:27:20.131Z,16.20
2023-03-24T11:29:54.358Z,16.20
2023-03-24T11:32:28.190Z,16.30
2023-03-24T11:35:13.414Z,16.40
2023-03-24T11:37:41.527Z,16.20
2023-03-24T11:40:25.261Z,16.00
2023-03-24T11:43:00.467Z,15.70
2023-03-24T11:45:42.090Z,15.70
2023-03-24T11:48:30.314Z,15.60
2023-03-24T11:50:58.863Z,15.50
2023-03-24T11:53:38.934Z,15.50
2023-03-24T11:56:24.598Z,15.50
2023-03-24T11:59:03.807Z,15.50
2023-03-24T12:01:38.271Z,15.70
2023-03-24T12:04:41.851Z,15.90
2023-03-24T12:07:31.993Z,16.20
2023-03-24T12:10:18.961Z,16.60
2023-03-24T12:13:32.719Z,16.80
2023-03-24T12:16:27.626Z,16.90
2023-03-24T12:19:20.765Z,16.90
2023-03-24T12:21:56.809Z,17.00
2023-03-24T12:24:40.739Z,17.30
2023-03-24T12:27:24.529Z,17.50
2023-03-24T12:30:25.846Z,17.80
2023-03-24T12:33:15.570Z,17.80
2023-03-24T12:35:48.173Z,18.10
2023-03-24T12:38:34.646Z,18.10
2023-03-24T12:41:36.710Z,17.90
2023-03-24T12:44:32.985Z,17.40
2023-03-24T12:47:56.470Z,17.00
2023-03-24T12:50:57.393Z,16.40
2023-03-24T12:53:33.261Z,16.00
2023-03-24T12:56:20.633Z,15.90
2023-03-24T12:58:58.223Z,15.80
2023-03-24T13:01:35.650Z,15.90
2023-03-24T13:04:31.861Z,15.90
2023-03-24T13:07:11.860Z,16.00
2023-03-24T13:10:00.261Z,15.80
2023-03-24T13:12:41.285Z,15.70
2023-03-24T13:15:26.858Z,15.50
2023-03-24T13:18:01.854Z,15.20
2023-03-24T13:20:45.791Z,14.90
2023-03-24T13:23:21.902Z,14.60
2023-03-24T13:26:18.801Z,14.40
2023-03-24T13:29:08.885Z,14.40
2023-03-24T13:32:11.777Z,14.60
2023-03-24T13:34:45.979Z,14.80
2023-03-24T13:37:37.790Z,15.00
2023-03-24T13:40:19.381Z,14.90
2023-03-24T13:42:52.900Z,14.90
2023-03-24T13:45:38.181Z,15.30
2023-03-24T13:48:11.489Z,15.50
2023-03-24T13:50:42.266Z,15.70
2023-03-24T13:53:15.052Z,15.80
2023-03-24T13:55:50.618Z,15.90
2023-03-24T13:58:23.966Z,15.80
2023-03-24T14:01:09.544Z,15.90
2023-03-24T14:03:40.697Z,15.80
2023-03-24T14:06:15.607Z,15.60
2023-03-24T14:08:55.965Z,15.20
2023-03-24T14:11:32.395Z,14.40
2023-03-24T14:14:26.742Z,13.70
2023-03-24T14:17:08.894Z,13.10
2023-03-24T14:19:45.493Z,12.70
2023-03-24T14:22:24.597Z,12.50
2023-03-24T14:25:15.519Z,12.30
2023-03-24T14:27:44.331Z,12.20
2023-03-24T14:30:11.379Z,12.20
2023-03-24T14:32:47.810Z,12.10
2023-03-24T14:35:27.094Z,12.00
2023-03-24T14:38:00.272Z,11.90
2023-03-24T14:40:42.237Z,11.90
2023-03-24T14:43:29.351Z,11.80
2023-03-24T14:46:00.199Z,11.70
2023-03-24T14:48:33.132Z,11.70
2023-03-24T14:51:08.964Z,11.70
2023-03-24T14:53:38.647Z,11.70
2023-03-24T14:56:11.619Z,11.60
2023-03-24T14:58:43.112Z,11.60
2023-03-24T15:01:12.056Z,11.70
2023-03-24T15:04:01.042Z,11.70
2023-03-24T15:06:28.114Z,11.60
2023-03-24T15:09:01.382Z,11.60
2023-03-24T15:11:34.202Z,11.60
2023-03-24T15:14:04.921Z,11.50
2023-03-24T15:16:34.159Z,11.50
2023-03-24T15:19:09.527Z,11.50
2023-03-24T15:21:39.398Z,11.40
2023-03-24T15:24:21.533Z,11.30
2023-03-24T15:26:51.507Z,11.20
2023-03-24T15:29:18.501Z,11.20
2023-03-24T15:31:45.726Z,11.20
2023-03-24T15:34:35.892Z,11.10
2023-03-24T15:37:05.549Z,11.10
2023-03-24T15:39:37.305Z,11.00
2023-03-24T15:42:09.570Z,11.10
2023-03-24T15:44:41.362Z,11.10
2023-03-24T15:47:21.163Z,11.20
2023-03-24T15:49:59.102Z,11.10
2023-03-24T15:52:31.516Z,11.00
2023-03-24T15:55:07.367Z,11.00
2023-03-24T15:57:41.534Z,11.10
2023-03-24T16:00:16.649Z,11.10
2023-03-24T16:02:57.824Z,11.10
2023-03-24T16:05:32.129Z,11.10
2023-03-24T16:08:04.450Z,11.00
2023-03-24T16:10:43.017Z,11.00
2023-03-24T16:13:22.391Z,10.90
2023-03-24T16:15:59.720Z,11.00
2023-03-24T16:18:35.033Z,11.00
2023-03-24T16:21:03.796Z,11.00
2023-03-24T16:23:31.410Z,11.00
2023-03-24T16:25:58.382Z,11.00
2023-03-24T16:28:25.369Z,11.10
2023-03-24T16:31:04.779Z,11.00
2023-03-24T16:33:32.434Z,10.80
2023-03-24T16:36:03.008Z,10.80
2023-03-24T16:38:30.110Z,10.70
2023-03-24T16:40:59.957Z,10.70
2023-03-24T16:43:27.980Z,10.60
2023-03-24T16:45:55.210Z,10.60
2023-03-24T16:48:22.192Z,10.60
2023-03-24T16:50:53.539Z,10.60
2023-03-24T16:53:21.405Z,10.50
2023-03-24T16:55:48.704Z,10.60
2023-03-24T16:58:17.277Z,10.50
2023-03-24T17:00:45.958Z,10.50
2023-03-24T17:03:14.194Z,10.40
2023-03-24T17:05:48.639Z,10.50
2023-03-24T17:08:16.587Z,10.60
2023-03-24T17:10:45.392Z,10.50
2023-03-24T17:13:22.324Z,10.40
2023-03-24T17:15:50.046Z,10.40
2023-03-24T17:18:18.003Z,10.50
2023-03-24T17:20:45.952Z,10.50
2023-03-24T17:23:16.907Z,10.50
2023-03-24T17:25:43.917Z,10.60
2023-03-24T17:28:17.862Z,10.60
2023-03-24T17:30:45.178Z,10.50
2023-03-24T17:33:14.000Z,10.50
2023-03-24T17:35:43.563Z,10.50
2023-03-24T17:38:13.129Z,10.40
2023-03-24T17:40:40.615Z,10.40
2023-03-24T17:43:07.770Z,10.40
2023-03-24T17:45:34.837Z,10.40
2023-03-24T17:48:02.136Z,10.40
2023-03-24T17:50:30.872Z,10.40
2023-03-24T17:52:57.874Z,10.30
2023-03-24T17:55:24.850Z,10.30
2023-03-24T17:57:52.345Z,10.20
2023-03-24T18:00:19.684Z,10.20
2023-03-24T18:02:47.200Z,10.10
2023-03-24T18:05:16.038Z,10.00
2023-03-24T18:07:44.259Z,10.00
2023-03-24T18:10:12.405Z,9.90
2023-03-24T18:12:39.520Z,9.90
2023-03-24T18:15:07.587Z,9.90
2023-03-24T18:17:34.818Z,9.80
2023-03-24T18:20:10.072Z,9.80
2023-03-24T18:22:41.303Z,9.80
2023-03-24T18:25:10.311Z,9.70
2023-03-24T18:27:41.739Z,9.80
2023-03-24T18:30:12.095Z,9.80
2023-03-24T18:32:39.949Z,9.70
2023-03-24T18:35:08.705Z,9.80
2023-03-24T18:37:36.507Z,9.70
2023-03-24T18:40:08.040Z,9.70
2023-03-24T18:42:35.912Z,9.70
2023-03-24T18:45:03.970Z,9.70
2023-03-24T18:47:30.992Z,9.70
2023-03-24T18:49:58.172Z,9.60
2023-03-24T18:52:25.625Z,9.60
2023-03-24T18:54:54.265Z,9.60
2023-03-24T18:57:21.969Z,9.60
2023-03-24T18:59:49.136Z,9.60
2023-03-24T19:02:16.284Z,9.50
2023-03-24T19:04:43.904Z,9.50
2023-03-24T19:07:14.917Z,9.50
2023-03-24T19:09:43.045Z,9.40
2023-03-24T19:12:10.508Z,9.40
2023-03-24T19:14:38.003Z,9.40
2023-03-24T19:17:05.156Z,9.40
2023-03-24T19:19:32.171Z,9.40
2023-03-24T19:21:59.812Z,9.30
2023-03-24T19:24:28.178Z,9.30
2023-03-24T19:26:55.534Z,9.40
2023-03-24T19:29:22.718Z,9.40
2023-03-24T19:31:49.895Z,9.50
2023-03-24T19:34:17.893Z,9.40
2023-03-24T19:36:47.584Z,9.40
2023-03-24T19:39:18.129Z,9.50
2023-03-24T19:41:45.144Z,9.50
2023-03-24T19:44:12.143Z,9.60
2023-03-24T19:46:39.535Z,9.50
2023-03-24T19:49:06.765Z,9.50
2023-03-24T19:51:33.849Z,9.50
2023-03-24T19:54:00.827Z,9.50
2023-03-24T19:56:27.837Z,9.50
2023-03-24T19:58:57.800Z,9.50
2023-03-24T20:01:24.921Z,9.50
2023-03-24T20:03:52.295Z,9.50
2023-03-24T20:06:19.960Z,9.50
2023-03-24T20:08:47.269Z,9.60
2023-03-24T20:11:14.286Z,9.60
2023-03-24T20:13:41.627Z,9.70
2023-03-24T20:16:08.901Z,9.60
2023-03-24T20:18:36.504Z,9.60
2023-03-24T20:21:06.303Z,9.60
2023-03-24T20:23:33.472Z,9.60
2023-03-24T20:26:01.877Z,9.60
2023-03-24T20:28:28.935Z,9.60
2023-03-24T20:31:01.394Z,9.60
2023-03-24T20:33:28.878Z,9.60
2023-03-24T20:35:57.224Z,9.60
2023-03-24T20:38:24.977Z,9.50
2023-03-24T20:41:02.770Z,9.60
2023-03-24T20:43:30.485Z,9.40
2023-03-24T20:45:58.347Z,9.40
2023-03-24T20:48:25.817Z,9.40
2023-03-24T20:50:52.874Z,9.40
2023-03-24T20:53:20.783Z,9.40
2023-03-24T20:56:16.982Z,9.40
2023-03-24T20:58:45.999Z,9.40
2023-03-24T21:01:22.496Z,9.30
2023-03-24T21:03:51.633Z,9.30
2023-03-24T21:06:20.775Z,9.20
2023-03-24T21:08:48.370Z,9.20
2023-03-24T21:11:15.589Z,9.10
2023-03-24T21:13:42.646Z,9.10
2023-03-24T21:16:12.017Z,9.00
2023-03-24T21:18:39.425Z,9.00
2023-03-24T21:21:06.730Z,9.00
2023-03-24T21:23:34.687Z,9.00
2023-03-24T21:26:02.486Z,9.00
2023-03-24T21:28:31.066Z,8.90
2023-03-24T21:31:05.556Z,8.90
2023-03-24T21:33:33.175Z,8.90
2023-03-24T21:36:00.533Z,8.90
2023-03-24T21:38:27.620Z,8.80
2023-03-24T21:41:01.902Z,8.80
2023-03-24T21:43:29.335Z,8.60
2023-03-24T21:45:58.045Z,8.60
2023-03-24T21:48:28.708Z,8.50
2023-03-24T21:50:57.577Z,8.40
2023-03-24T21:53:26.184Z,8.30
2023-03-24T21:56:04.840Z,8.30
2023-03-24T21:58:32.957Z,8.30
2023-03-24T22:01:00.462Z,8.30
2023-03-24T22:03:28.391Z,8.20
2023-03-24T22:05:57.597Z,8.20
2023-03-24T22:08:26.904Z,8.20
2023-03-24T22:10:58.409Z,8.20
2023-03-24T22:13:29.312Z,8.10
2023-03-24T22:15:58.497Z,8.00
2023-03-24T22:18:27.926Z,7.90
2023-03-24T22:21:07.028Z,7.80
2023-03-24T22:23:38.088Z,7.90
2023-03-24T22:26:08.415Z,8.10
2023-03-24T22:28:36.383Z,8.20
2023-03-24T22:31:09.486Z,8.20
2023-03-24T22:33:37.230Z,8.30
2023-03-24T22:36:05.737Z,8.30
2023-03-24T22:38:34.462Z,8.40
2023-03-24T22:41:10.306Z,8.30
2023-03-24T22:43:39.618Z,8.30
2023-03-24T22:46:07.104Z,8.30
2023-03-24T22:48:34.485Z,8.40
2023-03-24T22:51:01.467Z,8.40
2023-03-24T22:53:28.581Z,8.40
2023-03-24T22:55:55.750Z,8.40
2023-03-24T22:58:23.087Z,8.40
2023-03-24T23:00:54.060Z,8.40
2023-03-24T23:03:21.287Z,8.40
2023-03-24T23:05:48.625Z,8.30
2023-03-24T23:08:16.039Z,8.30
2023-03-24T23:10:44.872Z,8.30
2023-03-24T23:13:12.362Z,8.30
2023-03-24T23:15:40.148Z,8.30
2023-03-24T23:18:07.354Z,8.40
2023-03-24T23:20:34.970Z,8.30
2023-03-24T23:23:03.290Z,8.30
2023-03-24T23:25:31.989Z,8.30
2023-03-24T23:27:59.327Z,8.40
2023-03-24T23:30:26.728Z,8.30
2023-03-24T23:32:54.065Z,8.40
2023-03-24T23:35:21.143Z,8.30
2023-03-24T23:37:48.433Z,8.30
2023-03-24T23:40:16.296Z,8.20
2023-03-24T23:42:46.569Z,8.30
2023-03-24T23:45:18.182Z,8.20
2023-03-24T23:47:49.872Z,8.20
2023-03-24T23:50:18.546Z,8.20
2023-03-24T23:52:45.753Z,8.20
2023-03-24T23:55:18.085Z,8.20
2023-03-24T23:57:46.495Z,8.20
